sensor_id;sensor_type;location;lat;lon;timestamp;pressure;altitude;pressure_sealevel;temperature;humidity
19286;BME280;9776;50.798;6.430;2023-03-25T00:01:28;99038.66;;;10.42;60.37
19286;BME280;9776;50.798;6.430;2023-03-25T00:03:57;99044.84;;;10.49;60.11
19286;BME280;9776;50.798;6.430;2023-03-25T00:06:25;99033.56;;;10.55;59.98
19286;BME280;9776;50.798;6.430;2023-03-25T00:08:54;99027.66;;;10.53;59.94
19286;BME280;9776;50.798;6.430;2023-03-25T00:11:21;99030.81;;;10.48;59.91
19286;BME280;9776;50.798;6.430;2023-03-25T00:13:48;99028.91;;;10.42;60.14
19286;BME280;9776;50.798;6.430;2023-03-25T00:16:15;99018.28;;;10.36;60.24
19286;BME280;9776;50.798;6.430;2023-03-25T00:18:43;99043.53;;;10.30;60.32
19286;BME280;9776;50.798;6.430;2023-03-25T00:21:12;99063.63;;;10.31;60.32
19286;BME280;9776;50.798;6.430;2023-03-25T00:23:40;99060.50;;;10.27;60.73
19286;BME280;9776;50.798;6.430;2023-03-25T00:26:08;99044.34;;;10.31;61.05
19286;BME280;9776;50.798;6.430;2023-03-25T00:28:36;99055.56;;;10.33;61.05
19286;BME280;9776;50.798;6.430;2023-03-25T00:31:05;99047.91;;;10.38;61.18
19286;BME280;9776;50.798;6.430;2023-03-25T00:33:32;99040.34;;;10.35;61.57
19286;BME280;9776;50.798;6.430;2023-03-25T00:35:59;99039.78;;;10.24;61.85
19286;BME280;9776;50.798;6.430;2023-03-25T00:38:27;99039.50;;;10.19;62.27
19286;BME280;9776;50.798;6.430;2023-03-25T00:40:58;99035.25;;;10.18;62.28
19286;BME280;9776;50.798;6.430;2023-03-25T00:43:32;99023.03;;;10.17;62.23
19286;BME280;9776;50.798;6.430;2023-03-25T00:45:59;99021.50;;;10.23;62.26
19286;BME280;9776;50.798;6.430;2023-03-25T00:48:26;99033.88;;;10.22;62.45
19286;BME280;9776;50.798;6.430;2023-03-25T00:50:52;99031.59;;;10.19;62.57
19286;BME280;9776;50.798;6.430;2023-03-25T00:53:19;99033.94;;;10.14;62.54
19286;BME280;9776;50.798;6.430;2023-03-25T00:55:46;99029.53;;;10.07;62.84
19286;BME280;9776;50.798;6.430;2023-03-25T00:58:12;99021.88;;;9.97;63.34
19286;BME280;9776;50.798;6.430;2023-03-25T01:00:40;99019.22;;;9.97;63.21
19286;BME280;9776;50.798;6.430;2023-03-25T01:03:07;99024.16;;;10.00;63.12
19286;BME280;9776;50.798;6.430;2023-03-25T01:05:33;99035.88;;;9.98;62.99
19286;BME280;9776;50.798;6.430;2023-03-25T01:08:00;99022.50;;;9.99;62.95
19286;BME280;9776;50.798;6.430;2023-03-25T01:10:27;99019.22;;;9.97;62.94
19286;BME280;9776;50.798;6.430;2023-03-25T01:12:54;99026.84;;;9.92;63.33
19286;BME280;9776;50.798;6.430;2023-03-25T01:15:21;99037.56;;;9.91;63.25
19286;BME280;9776;50.798;6.430;2023-03-25T01:17:49;99025.09;;;9.85;63.34
19286;BME280;9776;50.798;6.430;2023-03-25T01:20:16;99037.81;;;9.81;63.64
19286;BME280;9776;50.798;6.430;2023-03-25T01:22:43;99043.25;;;9.80;63.80
19286;BME280;9776;50.798;6.430;2023-03-25T01:25:09;99041.59;;;9.79;63.82
19286;BME280;9776;50.798;6.430;2023-03-25T01:27:36;99028.81;;;9.90;63.79
19286;BME280;9776;50.798;6.430;2023-03-25T01:30:03;99021.88;;;9.97;63.79
19286;BME280;9776;50.798;6.430;2023-03-25T01:32:30;99031.78;;;9.95;63.81
19286;BME280;9776;50.798;6.430;2023-03-25T01:34:58;99026.50;;;9.95;63.89
19286;BME280;9776;50.798;6.430;2023-03-25T01:37:25;99039.34;;;9.98;64.09
19286;BME280;9776;50.798;6.430;2023-03-25T01:39:51;99034.69;;;10.00;64.12
19286;BME280;9776;50.798;6.430;2023-03-25T01:42:18;99045.59;;;9.97;64.38
19286;BME280;9776;50.798;6.430;2023-03-25T01:45:10;99037.50;;;9.99;64.60
19286;BME280;9776;50.798;6.430;2023-03-25T01:47:38;99051.78;;;10.04;64.60
19286;BME280;9776;50.798;6.430;2023-03-25T01:50:07;99036.22;;;9.95;65.05
19286;BME280;9776;50.798;6.430;2023-03-25T01:52:41;99030.66;;;9.90;65.32
19286;BME280;9776;50.798;6.430;2023-03-25T01:55:09;99021.25;;;9.95;65.07
19286;BME280;9776;50.798;6.430;2023-03-25T01:57:37;99018.53;;;10.03;65.05
19286;BME280;9776;50.798;6.430;2023-03-25T02:00:07;99023.09;;;10.09;64.88
19286;BME280;9776;50.798;6.430;2023-03-25T02:02:34;99033.03;;;10.22;64.50
19286;BME280;9776;50.798;6.430;2023-03-25T02:05:07;99040.97;;;10.22;64.55
19286;BME280;9776;50.798;6.430;2023-03-25T02:07:39;99028.00;;;10.12;64.99
19286;BME280;9776;50.798;6.430;2023-03-25T02:10:08;99006.81;;;10.06;65.37
19286;BME280;9776;50.798;6.430;2023-03-25T02:12:36;99007.66;;;9.84;65.83
19286;BME280;9776;50.798;6.430;2023-03-25T02:15:04;99016.41;;;9.76;66.22
19286;BME280;9776;50.798;6.430;2023-03-25T02:17:39;99014.03;;;9.66;66.33
19286;BME280;9776;50.798;6.430;2023-03-25T02:27:01;99026.72;;;9.40;66.53
19286;BME280;9776;50.798;6.430;2023-03-25T02:29:49;99025.19;;;9.46;66.41
19286;BME280;9776;50.798;6.430;2023-03-25T02:32:37;99011.69;;;9.49;66.37
19286;BME280;9776;50.798;6.430;2023-03-25T02:35:20;99017.72;;;9.57;66.10
19286;BME280;9776;50.798;6.430;2023-03-25T02:38:23;99008.81;;;9.58;65.98
19286;BME280;9776;50.798;6.430;2023-03-25T02:40:56;99010.94;;;9.63;65.87
19286;BME280;9776;50.798;6.430;2023-03-25T02:43:30;99004.00;;;9.62;66.18
19286;BME280;9776;50.798;6.430;2023-03-25T02:46:01;99020.81;;;9.61;65.96
19286;BME280;9776;50.798;6.430;2023-03-25T02:48:33;99014.91;;;9.59;66.06
19286;BME280;9776;50.798;6.430;2023-03-25T02:51:06;99018.72;;;9.56;66.01
19286;BME280;9776;50.798;6.430;2023-03-25T02:53:38;99035.06;;;9.52;66.38
19286;BME280;9776;50.798;6.430;2023-03-25T02:56:09;99022.66;;;9.52;66.51
19286;BME280;9776;50.798;6.430;2023-03-25T02:58:39;99019.59;;;9.49;66.62
19286;BME280;9776;50.798;6.430;2023-03-25T03:01:07;99012.03;;;9.46;66.74
19286;BME280;9776;50.798;6.430;2023-03-25T03:03:34;99010.22;;;9.46;66.66
19286;BME280;9776;50.798;6.430;2023-03-25T03:06:03;99006.63;;;9.39;66.91
19286;BME280;9776;50.798;6.430;2023-03-25T03:08:42;99007.53;;;9.32;67.24
19286;BME280;9776;50.798;6.430;2023-03-25T03:11:14;99004.91;;;9.24;67.48
19286;BME280;9776;50.798;6.430;2023-03-25T03:13:58;98995.19;;;9.24;67.26
19286;BME280;9776;50.798;6.430;2023-03-25T03:16:32;98999.19;;;9.20;67.39
19286;BME280;9776;50.798;6.430;2023-03-25T03:19:07;99001.97;;;9.19;67.20
19286;BME280;9776;50.798;6.430;2023-03-25T03:21:40;98999.34;;;9.19;67.18
19286;BME280;9776;50.798;6.430;2023-03-25T03:24:15;99011.22;;;9.15;67.02
19286;BME280;9776;50.798;6.430;2023-03-25T03:26:50;99013.03;;;9.14;66.97
19286;BME280;9776;50.798;6.430;2023-03-25T03:29:24;99008.59;;;9.15;66.88
19286;BME280;9776;50.798;6.430;2023-03-25T03:31:57;99001.50;;;9.15;66.71
19286;BME280;9776;50.798;6.430;2023-03-25T03:34:28;99000.69;;;9.15;66.63
19286;BME280;9776;50.798;6.430;2023-03-25T03:37:00;99007.59;;;9.16;66.45
19286;BME280;9776;50.798;6.430;2023-03-25T03:39:32;98999.06;;;9.13;66.46
19286;BME280;9776;50.798;6.430;2023-03-25T03:42:03;99012.38;;;9.12;66.30
19286;BME280;9776;50.798;6.430;2023-03-25T03:44:35;99014.03;;;9.13;66.29
19286;BME280;9776;50.798;6.430;2023-03-25T03:47:06;99016.00;;;9.11;66.05
19286;BME280;9776;50.798;6.430;2023-03-25T03:49:38;99022.09;;;9.11;66.06
19286;BME280;9776;50.798;6.430;2023-03-25T03:52:10;99016.00;;;9.11;65.95
19286;BME280;9776;50.798;6.430;2023-03-25T03:54:42;99034.44;;;9.11;66.01
19286;BME280;9776;50.798;6.430;2023-03-25T03:57:12;99029.66;;;9.06;65.86
19286;BME280;9776;50.798;6.430;2023-03-25T03:59:46;99021.44;;;9.09;65.85
19286;BME280;9776;50.798;6.430;2023-03-25T04:02:19;99024.06;;;9.09;65.82
19286;BME280;9776;50.798;6.430;2023-03-25T04:04:48;99031.75;;;9.19;65.65
19286;BME280;9776;50.798;6.430;2023-03-25T04:07:17;99023.88;;;9.19;65.55
19286;BME280;9776;50.798;6.430;2023-03-25T04:09:52;99022.22;;;9.18;65.36
19286;BME280;9776;50.798;6.430;2023-03-25T04:12:23;99029.94;;;9.20;65.39
19286;BME280;9776;50.798;6.430;2023-03-25T04:14:51;99040.81;;;9.17;65.34
19286;BME280;9776;50.798;6.430;2023-03-25T04:17:18;99033.09;;;9.15;65.40
19286;BME280;9776;50.798;6.430;2023-03-25T04:19:45;99040.34;;;9.13;65.09
19286;BME280;9776;50.798;6.430;2023-03-25T04:22:15;99042.47;;;9.18;65.12
19286;BME280;9776;50.798;6.430;2023-03-25T04:24:42;99041.47;;;9.19;64.92
19286;BME280;9776;50.798;6.430;2023-03-25T04:27:10;99030.94;;;9.19;64.77
19286;BME280;9776;50.798;6.430;2023-03-25T04:29:38;99039.31;;;9.22;64.62
19286;BME280;9776;50.798;6.430;2023-03-25T04:32:06;99042.09;;;9.29;64.54
19286;BME280;9776;50.798;6.430;2023-03-25T04:34:33;99033.16;;;9.38;64.25
19286;BME280;9776;50.798;6.430;2023-03-25T04:36:59;99030.63;;;9.44;63.92
19286;BME280;9776;50.798;6.430;2023-03-25T04:39:26;99027.00;;;9.45;63.83
19286;BME280;9776;50.798;6.430;2023-03-25T04:41:54;99027.16;;;9.44;63.85
19286;BME280;9776;50.798;6.430;2023-03-25T04:44:22;99046.75;;;9.49;63.47
19286;BME280;9776;50.798;6.430;2023-03-25T04:46:50;99046.38;;;9.52;63.41
19286;BME280;9776;50.798;6.430;2023-03-25T04:49:19;99038.31;;;9.54;63.42
19286;BME280;9776;50.798;6.430;2023-03-25T04:51:47;99029.44;;;9.55;63.31
19286;BME280;9776;50.798;6.430;2023-03-25T04:54:16;99035.84;;;9.52;63.34
19286;BME280;9776;50.798;6.430;2023-03-25T04:56:42;99034.03;;;9.53;63.01
19286;BME280;9776;50.798;6.430;2023-03-25T04:59:11;99030.41;;;9.54;63.05
19286;BME280;9776;50.798;6.430;2023-03-25T05:01:40;99032.41;;;9.52;63.12
19286;BME280;9776;50.798;6.430;2023-03-25T05:04:11;99035.75;;;9.46;63.14
19286;BME280;9776;50.798;6.430;2023-03-25T05:06:40;99026.03;;;9.46;63.05
19286;BME280;9776;50.798;6.430;2023-03-25T05:09:09;99034.09;;;9.45;63.07
19286;BME280;9776;50.798;6.430;2023-03-25T05:11:36;99024.84;;;9.49;63.03
19286;BME280;9776;50.798;6.430;2023-03-25T05:14:06;99028.41;;;9.56;62.81
19286;BME280;9776;50.798;6.430;2023-03-25T05:16:33;99035.06;;;9.52;63.06
19286;BME280;9776;50.798;6.430;2023-03-25T05:19:01;99028.06;;;9.59;62.69
19286;BME280;9776;50.798;6.430;2023-03-25T05:21:31;99012.47;;;9.57;62.95
19286;BME280;9776;50.798;6.430;2023-03-25T05:23:57;99034.34;;;9.58;62.81
19286;BME280;9776;50.798;6.430;2023-03-25T05:26:26;99032.50;;;9.58;62.80
19286;BME280;9776;50.798;6.430;2023-03-25T05:28:59;99020.34;;;9.57;62.89
19286;BME280;9776;50.798;6.430;2023-03-25T05:31:26;99015.72;;;9.59;62.72
19286;BME280;9776;50.798;6.430;2023-03-25T05:33:53;99016.56;;;9.60;62.77
19286;BME280;9776;50.798;6.430;2023-03-25T05:36:21;99013.28;;;9.58;62.78
19286;BME280;9776;50.798;6.430;2023-03-25T05:38:49;99038.31;;;9.54;62.77
19286;BME280;9776;50.798;6.430;2023-03-25T05:41:20;99035.06;;;9.52;62.70
19286;BME280;9776;50.798;6.430;2023-03-25T05:43:47;99016.97;;;9.49;62.72
19286;BME280;9776;50.798;6.430;2023-03-25T05:46:17;99024.84;;;9.49;62.63
19286;BME280;9776;50.798;6.430;2023-03-25T05:48:44;99025.19;;;9.46;62.50
19286;BME280;9776;50.798;6.430;2023-03-25T05:51:13;99037.50;;;9.53;62.53
19286;BME280;9776;50.798;6.430;2023-03-25T05:53:42;99047.69;;;9.56;62.15
19286;BME280;9776;50.798;6.430;2023-03-25T05:56:09;99036.16;;;9.57;62.13
19286;BME280;9776;50.798;6.430;2023-03-25T05:58:36;99017.53;;;9.59;62.16
19286;BME280;9776;50.798;6.430;2023-03-25T06:01:03;99038.25;;;9.62;61.99
19286;BME280;9776;50.798;6.430;2023-03-25T06:03:30;99037.09;;;9.64;61.87
19286;BME280;9776;50.798;6.430;2023-03-25T06:05:58;99033.94;;;9.69;61.89
19286;BME280;9776;50.798;6.430;2023-03-25T06:08:25;99039.22;;;9.69;61.91
19286;BME280;9776;50.798;6.430;2023-03-25T06:10:55;99053.22;;;9.69;61.78
19286;BME280;9776;50.798;6.430;2023-03-25T06:13:25;99036.59;;;9.69;61.97
19286;BME280;9776;50.798;6.430;2023-03-25T06:15:52;99051.03;;;9.73;61.82
19286;BME280;9776;50.798;6.430;2023-03-25T06:18:20;99048.16;;;9.83;61.53
19286;BME280;9776;50.798;6.430;2023-03-25T06:20:49;99048.38;;;9.96;61.27
19286;BME280;9776;50.798;6.430;2023-03-25T06:23:18;99047.44;;;10.11;61.07
19286;BME280;9776;50.798;6.430;2023-03-25T06:25:46;99056.78;;;10.22;60.83
19286;BME280;9776;50.798;6.430;2023-03-25T06:28:14;99067.16;;;10.23;61.22
19286;BME280;9776;50.798;6.430;2023-03-25T06:30:43;99070.78;;;10.22;61.72
19286;BME280;9776;50.798;6.430;2023-03-25T06:33:09;99071.84;;;10.13;62.39
19286;BME280;9776;50.798;6.430;2023-03-25T06:35:38;99065.69;;;9.98;62.83
19286;BME280;9776;50.798;6.430;2023-03-25T06:38:05;99104.28;;;9.91;63.36
19286;BME280;9776;50.798;6.430;2023-03-25T06:40:31;99077.34;;;9.81;64.01
19286;BME280;9776;50.798;6.430;2023-03-25T06:42:59;99076.53;;;9.73;64.40
19286;BME280;9776;50.798;6.430;2023-03-25T06:45:27;99089.63;;;9.66;64.96
19286;BME280;9776;50.798;6.430;2023-03-25T06:47:53;99087.97;;;9.65;65.06
19286;BME280;9776;50.798;6.430;2023-03-25T06:50:20;99089.63;;;9.66;65.25
19286;BME280;9776;50.798;6.430;2023-03-25T06:52:47;99085.31;;;9.65;65.48
19286;BME280;9776;50.798;6.430;2023-03-25T06:55:13;99083.38;;;9.59;65.90
19286;BME280;9776;50.798;6.430;2023-03-25T06:57:40;99074.31;;;9.61;65.97
19286;BME280;9776;50.798;6.430;2023-03-25T07:00:09;99080.59;;;9.60;66.10
19286;BME280;9776;50.798;6.430;2023-03-25T07:02:38;99077.56;;;9.72;65.96
19286;BME280;9776;50.798;6.430;2023-03-25T07:05:05;99076.69;;;9.79;66.00
19286;BME280;9776;50.798;6.430;2023-03-25T07:07:32;99079.44;;;9.86;66.13
19286;BME280;9776;50.798;6.430;2023-03-25T07:09:59;99078.97;;;9.82;65.91
19286;BME280;9776;50.798;6.430;2023-03-25T07:12:26;99095.59;;;9.83;66.15
19286;BME280;9776;50.798;6.430;2023-03-25T07:14:53;99085.59;;;9.78;66.05
19286;BME280;9776;50.798;6.430;2023-03-25T07:17:22;99079.03;;;9.74;66.20
19286;BME280;9776;50.798;6.430;2023-03-25T07:19:50;99080.34;;;9.70;66.47
19286;BME280;9776;50.798;6.430;2023-03-25T07:22:17;99059.00;;;9.65;66.43
19286;BME280;9776;50.798;6.430;2023-03-25T07:24:44;99070.63;;;9.70;66.40
19286;BME280;9776;50.798;6.430;2023-03-25T07:27:11;99077.56;;;9.72;66.64
19286;BME280;9776;50.798;6.430;2023-03-25T07:29:38;99073.41;;;9.77;66.43
19286;BME280;9776;50.798;6.430;2023-03-25T07:32:05;99077.69;;;9.78;66.45
19286;BME280;9776;50.798;6.430;2023-03-25T07:34:32;99089.34;;;9.84;66.23
19286;BME280;9776;50.798;6.430;2023-03-25T07:37:00;99078.75;;;9.92;66.16
19286;BME280;9776;50.798;6.430;2023-03-25T07:39:28;99078.88;;;9.98;65.86
19286;BME280;9776;50.798;6.430;2023-03-25T07:41:54;99081.09;;;10.09;65.57
19286;BME280;9776;50.798;6.430;2023-03-25T07:44:21;99081.56;;;10.13;65.50
19286;BME280;9776;50.798;6.430;2023-03-25T07:46:48;99078.06;;;10.20;65.26
19286;BME280;9776;50.798;6.430;2023-03-25T07:49:15;99082.28;;;10.30;64.96
19286;BME280;9776;50.798;6.430;2023-03-25T07:51:42;99072.81;;;10.35;64.64
19286;BME280;9776;50.798;6.430;2023-03-25T07:54:11;99066.50;;;10.59;63.98
19286;BME280;9776;50.798;6.430;2023-03-25T07:56:38;99077.44;;;10.56;63.87
19286;BME280;9776;50.798;6.430;2023-03-25T07:59:04;99086.47;;;11.05;62.82
19286;BME280;9776;50.798;6.430;2023-03-25T08:01:31;99086.72;;;12.11;60.64
19286;BME280;9776;50.798;6.430;2023-03-25T08:03:58;99089.44;;;13.35;57.25
19286;BME280;9776;50.798;6.430;2023-03-25T08:06:24;99094.00;;;14.41;55.05
19286;BME280;9776;50.798;6.430;2023-03-25T08:08:51;99087.19;;;15.17;52.90
19286;BME280;9776;50.798;6.430;2023-03-25T08:11:21;99079.47;;;15.60;51.70
19286;BME280;9776;50.798;6.430;2023-03-25T08:13:47;99090.97;;;15.41;51.90
19286;BME280;9776;50.798;6.430;2023-03-25T08:16:14;99109.53;;;14.44;53.98
19286;BME280;9776;50.798;6.430;2023-03-25T08:18:42;99109.94;;;14.67;53.20
19286;BME280;9776;50.798;6.430;2023-03-25T08:21:09;99115.53;;;15.43;51.53
19286;BME280;9776;50.798;6.430;2023-03-25T08:23:36;99106.66;;;16.07;49.67
19286;BME280;9776;50.798;6.430;2023-03-25T08:26:03;99115.25;;;16.89;48.01
19286;BME280;9776;50.798;6.430;2023-03-25T08:28:31;99118.09;;;17.85;46.03
19286;BME280;9776;50.798;6.430;2023-03-25T08:30:58;99113.16;;;17.34;46.20
19286;BME280;9776;50.798;6.430;2023-03-25T08:33:26;99123.19;;;16.15;48.50
19286;BME280;9776;50.798;6.430;2023-03-25T08:35:58;99106.03;;;16.36;48.04
19286;BME280;9776;50.798;6.430;2023-03-25T08:38:25;99117.22;;;16.13;48.41
19286;BME280;9776;50.798;6.430;2023-03-25T08:40:56;99105.47;;;15.58;48.97
19286;BME280;9776;50.798;6.430;2023-03-25T08:43:23;99112.78;;;16.38;47.44
19286;BME280;9776;50.798;6.430;2023-03-25T08:45:51;99115.97;;;16.78;46.20
19286;BME280;9776;50.798;6.430;2023-03-25T08:48:18;99112.84;;;18.08;43.96
19286;BME280;9776;50.798;6.430;2023-03-25T08:50:44;99116.63;;;19.07;42.19
19286;BME280;9776;50.798;6.430;2023-03-25T08:53:11;99111.88;;;18.97;41.55
19286;BME280;9776;50.798;6.430;2023-03-25T08:55:38;99107.69;;;19.01;41.18
19286;BME280;9776;50.798;6.430;2023-03-25T08:58:05;99096.16;;;18.66;41.81
19286;BME280;9776;50.798;6.430;2023-03-25T09:00:32;99122.34;;;18.87;41.08
19286;BME280;9776;50.798;6.430;2023-03-25T09:03:01;99114.69;;;18.38;41.95
19286;BME280;9776;50.798;6.430;2023-03-25T09:05:28;99133.44;;;18.49;42.01
19286;BME280;9776;50.798;6.430;2023-03-25T09:07:55;99117.97;;;17.44;43.65
19286;BME280;9776;50.798;6.430;2023-03-25T09:10:22;99121.59;;;17.68;43.44
19286;BME280;9776;50.798;6.430;2023-03-25T09:12:49;99119.53;;;18.29;42.55
19286;BME280;9776;50.798;6.430;2023-03-25T09:15:16;99131.03;;;19.17;40.88
19286;BME280;9776;50.798;6.430;2023-03-25T09:18:17;99117.63;;;19.92;39.23
19286;BME280;9776;50.798;6.430;2023-03-25T09:20:44;99120.66;;;19.56;39.72
19286;BME280;9776;50.798;6.430;2023-03-25T09:23:12;99127.06;;;19.32;40.51
19286;BME280;9776;50.798;6.430;2023-03-25T09:25:39;99122.03;;;19.70;39.69
19286;BME280;9776;50.798;6.430;2023-03-25T09:28:06;99127.72;;;18.46;41.53
19286;BME280;9776;50.798;6.430;2023-03-25T09:30:32;99114.56;;;17.37;43.05
19286;BME280;9776;50.798;6.430;2023-03-25T09:32:59;99128.63;;;17.08;43.75
19286;BME280;9776;50.798;6.430;2023-03-25T09:35:27;99110.91;;;18.57;40.90
19286;BME280;9776;50.798;6.430;2023-03-25T09:37:54;99106.63;;;19.77;38.88
19286;BME280;9776;50.798;6.430;2023-03-25T09:40:21;99116.75;;;20.03;38.23
19286;BME280;9776;50.798;6.430;2023-03-25T09:42:56;99124.13;;;20.24;37.77
19286;BME280;9776;50.798;6.430;2023-03-25T09:45:31;99112.66;;;21.67;35.51
19286;BME280;9776;50.798;6.430;2023-03-25T09:48:02;99138.13;;;21.86;35.04
19286;BME280;9776;50.798;6.430;2023-03-25T09:50:33;99125.56;;;23.09;33.35
19286;BME280;9776;50.798;6.430;2023-03-25T09:53:04;99142.84;;;23.60;32.71
19286;BME280;9776;50.798;6.430;2023-03-25T09:55:37;99129.59;;;23.48;32.82
19286;BME280;9776;50.798;6.430;2023-03-25T09:58:22;99138.91;;;23.93;32.17
19286;BME280;9776;50.798;6.430;2023-03-25T10:00:55;99128.28;;;24.38;31.20
19286;BME280;9776;50.798;6.430;2023-03-25T10:03:28;99131.25;;;24.57;31.09
19286;BME280;9776;50.798;6.430;2023-03-25T10:06:14;99130.16;;;25.23;29.83
19286;BME280;9776;50.798;6.430;2023-03-25T10:08:59;99149.28;;;25.42;29.36
19286;BME280;9776;50.798;6.430;2023-03-25T10:11:37;99141.88;;;25.78;29.05
19286;BME280;9776;50.798;6.430;2023-03-25T10:14:09;99123.97;;;25.92;28.83
19286;BME280;9776;50.798;6.430;2023-03-25T10:16:44;99136.50;;;26.66;27.78
19286;BME280;9776;50.798;6.430;2023-03-25T10:19:27;99126.03;;;26.54;27.55
19286;BME280;9776;50.798;6.430;2023-03-25T10:22:03;99135.94;;;27.02;27.03
19286;BME280;9776;50.798;6.430;2023-03-25T10:24:31;99144.13;;;26.97;27.04
19286;BME280;9776;50.798;6.430;2023-03-25T10:27:02;99135.38;;;27.05;26.76
19286;BME280;9776;50.798;6.430;2023-03-25T10:29:33;99132.09;;;26.41;27.67
19286;BME280;9776;50.798;6.430;2023-03-25T10:32:06;99154.22;;;25.00;29.67
19286;BME280;9776;50.798;6.430;2023-03-25T10:34:36;99145.16;;;25.70;28.79
19286;BME280;9776;50.798;6.430;2023-03-25T10:37:09;99127.94;;;26.54;27.91
19286;BME280;9776;50.798;6.430;2023-03-25T10:39:40;99134.72;;;27.66;26.75
19286;BME280;9776;50.798;6.430;2023-03-25T10:42:18;99146.47;;;27.33;26.62
19286;BME280;9776;50.798;6.430;2023-03-25T10:44:46;99143.50;;;26.33;27.18
19286;BME280;9776;50.798;6.430;2023-03-25T10:47:16;99162.69;;;26.75;26.89
19286;BME280;9776;50.798;6.430;2023-03-25T10:49:45;99151.47;;;27.73;26.11
19286;BME280;9776;50.798;6.430;2023-03-25T10:52:15;99133.81;;;27.94;25.69
19286;BME280;9776;50.798;6.430;2023-03-25T10:54:44;99141.41;;;28.53;24.78
19286;BME280;9776;50.798;6.430;2023-03-25T10:57:17;99134.06;;;28.73;24.17
19286;BME280;9776;50.798;6.430;2023-03-25T10:59:53;99126.69;;;28.41;24.59
19286;BME280;9776;50.798;6.430;2023-03-25T11:02:22;99135.16;;;27.97;25.12
19286;BME280;9776;50.798;6.430;2023-03-25T11:04:53;99126.66;;;27.61;24.98
19286;BME280;9776;50.798;6.430;2023-03-25T11:07:27;99132.09;;;27.09;25.54
19286;BME280;9776;50.798;6.430;2023-03-25T11:10:08;99142.66;;;27.34;25.09
19286;BME280;9776;50.798;6.430;2023-03-25T11:12:36;99152.19;;;28.58;24.52
19286;BME280;9776;50.798;6.430;2023-03-25T11:15:04;99141.25;;;28.82;24.08
19286;BME280;9776;50.798;6.430;2023-03-25T11:17:32;99141.59;;;29.54;23.11
19286;BME280;9776;50.798;6.430;2023-03-25T11:20:00;99129.69;;;30.04;22.33
19286;BME280;9776;50.798;6.430;2023-03-25T11:22:36;99130.75;;;30.17;22.41
19286;BME280;9776;50.798;6.430;2023-03-25T11:25:11;99142.38;;;30.09;22.34
19286;BME280;9776;50.798;6.430;2023-03-25T11:27:44;99142.94;;;30.19;22.29
19286;BME280;9776;50.798;6.430;2023-03-25T11:30:15;99142.03;;;30.10;22.24
19286;BME280;9776;50.798;6.430;2023-03-25T11:32:42;99159.09;;;30.16;22.42
19286;BME280;9776;50.798;6.430;2023-03-25T11:35:15;99137.47;;;28.97;23.21
19286;BME280;9776;50.798;6.430;2023-03-25T11:37:48;99150.06;;;29.06;23.41
19286;BME280;9776;50.798;6.430;2023-03-25T11:40:19;99144.69;;;30.02;22.23
19286;BME280;9776;50.798;6.430;2023-03-25T11:42:51;99147.72;;;30.50;21.61
19286;BME280;9776;50.798;6.430;2023-03-25T11:45:20;99149.22;;;30.78;21.65
19286;BME280;9776;50.798;6.430;2023-03-25T11:47:48;99140.94;;;31.44;21.12
19286;BME280;9776;50.798;6.430;2023-03-25T11:50:21;99146.94;;;31.55;20.77
19286;BME280;9776;50.798;6.430;2023-03-25T11:52:52;99151.31;;;30.81;21.49
19286;BME280;9776;50.798;6.430;2023-03-25T11:55:23;99146.50;;;29.79;22.20
19286;BME280;9776;50.798;6.430;2023-03-25T11:57:52;99145.00;;;29.46;22.63
19286;BME280;9776;50.798;6.430;2023-03-25T12:00:32;99126.38;;;29.80;21.98
19286;BME280;9776;50.798;6.430;2023-03-25T12:03:04;99145.75;;;30.42;21.66
19286;BME280;9776;50.798;6.430;2023-03-25T12:05:32;99139.44;;;30.99;21.18
19286;BME280;9776;50.798;6.430;2023-03-25T12:08:03;99130.81;;;30.25;21.45
19286;BME280;9776;50.798;6.430;2023-03-25T12:10:42;99138.19;;;29.89;21.30
19286;BME280;9776;50.798;6.430;2023-03-25T12:13:16;99144.53;;;29.11;22.09
19286;BME280;9776;50.798;6.430;2023-03-25T12:15:53;99150.22;;;28.27;23.03
19286;BME280;9776;50.798;6.430;2023-03-25T12:18:36;99143.69;;;25.03;26.18
19286;BME280;9776;50.798;6.430;2023-03-25T12:21:11;99123.41;;;25.21;26.86
19286;BME280;9776;50.798;6.430;2023-03-25T12:23:48;99134.63;;;26.27;25.45
19286;BME280;9776;50.798;6.430;2023-03-25T12:26:26;99147.13;;;25.39;26.48
19286;BME280;9776;50.798;6.430;2023-03-25T12:29:09;99143.41;;;24.69;27.72
19286;BME280;9776;50.798;6.430;2023-03-25T12:31:50;99143.94;;;25.12;27.28
19286;BME280;9776;50.798;6.430;2023-03-25T12:34:27;99149.38;;;23.27;29.32
19286;BME280;9776;50.798;6.430;2023-03-25T12:37:02;99147.25;;;22.07;31.95
19286;BME280;9776;50.798;6.430;2023-03-25T12:39:43;99138.16;;;21.26;33.55
19286;BME280;9776;50.798;6.430;2023-03-25T12:42:27;99116.88;;;21.41;33.89
19286;BME280;9776;50.798;6.430;2023-03-25T12:45:14;99113.69;;;23.00;32.07
19286;BME280;9776;50.798;6.430;2023-03-25T12:47:49;99104.50;;;25.21;29.11
19286;BME280;9776;50.798;6.430;2023-03-25T12:50:27;99103.94;;;26.42;27.55
19286;BME280;9776;50.798;6.430;2023-03-25T12:53:02;99086.56;;;26.82;26.28
19286;BME280;9776;50.798;6.430;2023-03-25T12:55:43;99100.47;;;26.36;26.40
19286;BME280;9776;50.798;6.430;2023-03-25T12:58:23;99083.47;;;26.31;26.51
19286;BME280;9776;50.798;6.430;2023-03-25T13:00:59;99089.81;;;25.62;26.13
19286;BME280;9776;50.798;6.430;2023-03-25T13:03:52;99080.03;;;25.66;26.22
19286;BME280;9776;50.798;6.430;2023-03-25T13:06:27;99075.41;;;25.77;25.68
19286;BME280;9776;50.798;6.430;2023-03-25T13:08:58;99067.31;;;24.62;26.32
19286;BME280;9776;50.798;6.430;2023-03-25T13:11:31;99083.69;;;23.23;28.11
19286;BME280;9776;50.798;6.430;2023-03-25T13:14:04;99086.38;;;22.23;29.17
19286;BME280;9776;50.798;6.430;2023-03-25T13:16:35;99087.44;;;21.08;30.71
19286;BME280;9776;50.798;6.430;2023-03-25T13:19:06;99095.84;;;20.28;31.88
19286;BME280;9776;50.798;6.430;2023-03-25T13:21:37;99095.22;;;19.42;32.95
19286;BME280;9776;50.798;6.430;2023-03-25T13:24:11;99117.16;;;18.51;34.74
19286;BME280;9776;50.798;6.430;2023-03-25T13:26:44;99125.50;;;18.13;36.11
19286;BME280;9776;50.798;6.430;2023-03-25T13:29:19;99123.97;;;17.76;37.91
19286;BME280;9776;50.798;6.430;2023-03-25T13:31:49;99140.63;;;17.53;38.72
19286;BME280;9776;50.798;6.430;2023-03-25T13:34:27;99148.09;;;17.08;39.96
19286;BME280;9776;50.798;6.430;2023-03-25T13:37:09;99152.47;;;17.02;40.22
19286;BME280;9776;50.798;6.430;2023-03-25T13:39:51;99159.81;;;16.82;40.74